Sahiwal Weather



Sahiwal's Current Weather

Temprature 21.61o broken clouds

broken clouds

Rain: 0 %

Min Temprature21.61o
Max Temprature21.61o
Humidity35
Wind Speed1.95 m/h
Sun Rise05:48:44
Sun Set18:35:15
Current Time: 09-Apr-2020 01:56:51
Lat/Lon: 31.97, 72.33




Sahiwal's Geo Location



Sahiwal's Weather Forecast

Time Overall Temp Min Temp Max Temp Humidity Wind Speed Rain
09-Apr-2020 (Thu)
02:00:00 broken clouds 21.610 21.610 21.610 35 1.95 m/h 0 %
05:00:00 broken clouds 20.400 20.400 20.400 38 1.53 m/h 0 %
08:00:00 broken clouds 24.590 24.590 24.590 31 2.03 m/h 0 %
11:00:00 broken clouds 30.150 30.150 30.150 22 2.31 m/h 0 %
14:00:00 overcast clouds 32.910 32.910 32.910 18 4.13 m/h 0 %
17:00:00 overcast clouds 32.900 32.900 32.900 16 2.86 m/h 0 %
20:00:00 overcast clouds 26.730 26.730 26.730 25 1.03 m/h 0 %
23:00:00 light rain 23.160 23.160 23.160 40 4.71 m/h 77 %
10-Apr-2020 (Fri)
02:00:00 light rain 20.410 20.410 20.410 59 3.93 m/h 65 %
05:00:00 scattered clouds 19.020 19.020 19.020 64 3.46 m/h 0 %
08:00:00 clear sky 22.820 22.820 22.820 47 2.87 m/h 0 %
11:00:00 clear sky 29.910 29.910 29.910 26 2.76 m/h 0 %
14:00:00 clear sky 32.870 32.870 32.870 21 3.03 m/h 0 %
17:00:00 clear sky 32.620 32.620 32.620 22 3.95 m/h 0 %
20:00:00 few clouds 26.990 26.990 26.990 33 4.06 m/h 0 %
23:00:00 scattered clouds 24.870 24.870 24.870 37 3.58 m/h 0 %
11-Apr-2020 (Sat)
02:00:00 scattered clouds 23.590 23.590 23.590 37 2.47 m/h 0 %
05:00:00 scattered clouds 22.340 22.340 22.340 38 1.64 m/h 0 %
08:00:00 broken clouds 27.020 27.020 27.020 29 2.31 m/h 0 %
11:00:00 overcast clouds 32.980 32.980 32.980 19 1.26 m/h 0 %
14:00:00 broken clouds 34.940 34.940 34.940 14 3.04 m/h 0 %
17:00:00 broken clouds 34.770 34.770 34.770 14 2.62 m/h 0 %
20:00:00 scattered clouds 28.910 28.910 28.910 22 2.46 m/h 0 %
23:00:00 broken clouds 26.720 26.720 26.720 27 1.84 m/h 0 %
12-Apr-2020 (Sun)
02:00:00 broken clouds 25.510 25.510 25.510 27 1.76 m/h 0 %
05:00:00 broken clouds 24.070 24.070 24.070 30 1.03 m/h 0 %
08:00:00 overcast clouds 28.810 28.810 28.810 23 1.08 m/h 0 %
11:00:00 overcast clouds 34.460 34.460 34.460 16 3.03 m/h 0 %
14:00:00 overcast clouds 36.790 36.790 36.790 15 3.84 m/h 0 %
17:00:00 overcast clouds 36.120 36.120 36.120 15 2.5 m/h 0 %
20:00:00 broken clouds 29.700 29.700 29.700 21 2.33 m/h 0 %
23:00:00 scattered clouds 27.270 27.270 27.270 25 1.07 m/h 0 %
13-Apr-2020 (Mon)
02:00:00 overcast clouds 26.360 26.360 26.360 25 0.87 m/h 0 %
05:00:00 broken clouds 25.520 25.520 25.520 25 1.69 m/h 0 %
08:00:00 broken clouds 30.310 30.310 30.310 19 0.71 m/h 0 %
11:00:00 scattered clouds 36.290 36.290 36.290 14 3.3 m/h 0 %
14:00:00 clear sky 38.740 38.740 38.740 13 3.34 m/h 0 %
17:00:00 clear sky 38.730 38.730 38.730 12 3.18 m/h 0 %
20:00:00 clear sky 32.880 32.880 32.880 17 3.02 m/h 0 %
23:00:00 clear sky 30.880 30.880 30.880 19 3.2 m/h 0 %

Famous Cities (61)